Time;durP1;ratioP1;P1;durP2;ratioP2;P2;SDS_P1;SDS_P2;PMS_P1;PMS_P2;Temp;Humidity;BMP_temperature;BMP_pressure;BME280_temperature;BME280_humidity;BME280_pressure;Samples;Min_cycle;Max_cycle;Signal;HPM_P1;HPM_P2
2022/05/13 06:01:33;;;;;;;6.10;3.25;;;17.20;99.90;;;;;;5355258;23;20040;-78
2022/05/13 06:03:59;;;;;;;8.73;3.55;;;17.20;99.90;;;;;;4921152;29;20524;-77
2022/05/13 06:06:25;;;;;;;5.68;3.40;;;17.20;99.90;;;;;;4918964;29;20107;-77
2022/05/13 06:08:54;;;;;;;4.20;3.10;;;17.20;99.90;;;;;;4919932;29;20032;-77
2022/05/13 06:11:20;;;;;;;4.95;3.28;;;17.20;99.90;;;;;;4917677;29;20031;-78
2022/05/13 06:13:45;;;;;;;5.05;3.08;;;17.20;99.90;;;;;;4917177;29;20036;-77
2022/05/13 06:16:11;;;;;;;4.57;3.28;;;17.30;99.90;;;;;;4918188;29;20069;-79
2022/05/13 06:18:37;;;;;;;4.30;3.33;;;17.30;99.90;;;;;;4919526;29;20087;-80
2022/05/13 06:21:04;;;;;;;3.65;2.83;;;17.40;99.90;;;;;;4917642;29;20043;-77
2022/05/13 06:23:29;;;;;;;7.65;3.17;;;17.40;99.90;;;;;;4915706;29;20051;-79
2022/05/13 06:25:55;;;;;;;6.40;3.67;;;17.40;99.90;;;;;;4915020;29;20032;-79
2022/05/13 06:28:20;;;;;;;5.28;4.00;;;17.40;99.90;;;;;;4915728;29;20028;-80
2022/05/13 06:30:46;;;;;;;9.23;3.70;;;17.40;99.90;;;;;;4915702;29;20489;-79
2022/05/13 06:33:12;;;;;;;4.05;3.25;;;17.50;99.90;;;;;;4916026;29;20039;-78
2022/05/13 06:35:38;;;;;;;4.85;3.50;;;17.70;99.90;;;;;;4917662;29;20028;-79
2022/05/13 06:38:04;;;;;;;5.82;3.50;;;17.70;99.90;;;;;;4920934;29;20024;-77
2022/05/13 06:40:29;;;;;;;4.60;2.90;;;17.80;99.90;;;;;;4919250;29;20131;-80
2022/05/13 06:42:55;;;;;;;4.25;3.33;;;17.90;99.90;;;;;;4919235;29;20079;-77
2022/05/13 06:45:21;;;;;;;5.55;2.88;;;18.10;99.90;;;;;;4919466;29;20080;-80
2022/05/13 06:47:47;;;;;;;7.05;3.05;;;18.30;99.90;;;;;;4920354;29;20080;-82
2022/05/13 06:50:18;;;;;;;6.07;3.08;;;18.40;99.90;;;;;;4918964;29;20032;-79
2022/05/13 06:52:45;;;;;;;4.18;3.00;;;18.50;99.90;;;;;;4918791;29;20035;-79
2022/05/13 06:55:11;;;;;;;5.68;3.10;;;18.40;99.90;;;;;;4919620;29;20400;-78
2022/05/13 06:57:40;;;;;;;6.07;2.95;;;18.50;99.90;;;;;;4918603;29;20028;-77
2022/05/13 07:00:07;;;;;;;4.07;3.15;;;18.40;99.90;;;;;;4920785;29;20028;-79
2022/05/13 07:02:33;;;;;;;5.82;3.03;;;18.20;99.90;;;;;;4932915;29;20247;-80
2022/05/13 07:04:58;;;;;;;5.22;3.55;;;18.30;99.90;;;;;;4936317;29;20453;-79
2022/05/13 07:07:24;;;;;;;7.03;2.92;;;18.20;99.90;;;;;;4927583;29;20059;-79
2022/05/13 07:09:49;;;;;;;5.00;2.60;;;18.30;99.90;;;;;;4920873;29;20027;-80
2022/05/13 07:12:16;;;;;;;11.82;2.92;;;18.20;99.90;;;;;;4919880;29;20048;-79
2022/05/13 07:14:41;;;;;;;8.18;3.58;;;18.20;99.90;;;;;;4919807;29;20116;-79
2022/05/13 07:17:07;;;;;;;4.05;2.15;;;18.20;99.90;;;;;;4920101;29;20035;-79
2022/05/13 07:19:33;;;;;;;5.82;2.47;;;18.20;99.90;;;;;;4919722;29;20104;-80
2022/05/13 07:22:00;;;;;;;5.25;2.38;;;18.30;99.90;;;;;;4920339;29;20028;-79
2022/05/13 07:24:26;;;;;;;5.57;2.80;;;18.40;99.90;;;;;;4921015;29;20056;-78
2022/05/13 07:26:52;;;;;;;3.70;2.95;;;18.30;99.90;;;;;;4921690;29;20021;-80
2022/05/13 07:29:17;;;;;;;6.22;3.03;;;18.30;99.90;;;;;;4919174;29;20080;-80
2022/05/13 07:31:43;;;;;;;6.63;2.60;;;18.10;99.90;;;;;;4919264;29;20067;-79
2022/05/13 07:34:09;;;;;;;5.15;3.10;;;18.20;99.90;;;;;;4920150;29;20052;-78
2022/05/13 07:36:35;;;;;;;7.07;3.10;;;18.20;99.90;;;;;;4922166;29;20036;-79
2022/05/13 07:41:46;;;;;;;6.50;2.53;;;18.40;99.90;;;;;;4921542;29;20087;-79
2022/05/13 07:44:11;;;;;;;6.57;2.63;;;18.40;99.90;;;;;;4920426;29;20394;-79
2022/05/13 07:46:38;;;;;;;10.02;3.70;;;18.60;99.90;;;;;;4918328;29;20080;-77
2022/05/13 07:49:04;;;;;;;4.03;2.47;;;18.60;99.90;;;;;;4918943;29;20024;-78
2022/05/13 07:51:31;;;;;;;7.05;2.35;;;18.60;99.90;;;;;;4919610;29;20397;-77
2022/05/13 07:53:57;;;;;;;4.75;2.53;;;18.60;99.90;;;;;;4919642;29;20059;-80
2022/05/13 07:56:22;;;;;;;4.07;2.17;;;18.60;99.90;;;;;;4920470;29;20032;-78
2022/05/13 07:58:48;;;;;;;5.65;2.55;;;18.60;99.90;;;;;;4919651;29;20245;-79
2022/05/13 08:01:14;;;;;;;5.25;2.13;;;18.80;99.90;;;;;;4918727;29;20622;-79
2022/05/13 08:03:41;;;;;;;7.35;2.30;;;18.70;99.90;;;;;;4918875;29;20388;-78
2022/05/13 08:06:08;;;;;;;5.80;2.13;;;18.70;99.90;;;;;;4918480;29;20124;-79
2022/05/13 08:08:36;;;;;;;8.00;1.90;;;18.90;99.90;;;;;;4921247;29;20071;-78
2022/05/13 08:11:04;;;;;;;4.32;2.15;;;19.30;99.90;;;;;;4918609;29;20416;-81
2022/05/13 08:13:31;;;;;;;2.28;1.75;;;19.60;99.90;;;;;;4918446;29;20230;-79
2022/05/13 08:15:58;;;;;;;6.30;2.95;;;19.70;99.90;;;;;;4918945;29;20107;-80
2022/05/13 08:18:23;;;;;;;5.55;1.90;;;19.90;99.90;;;;;;4918462;29;20021;-80
2022/05/13 08:20:50;;;;;;;5.53;1.98;;;19.80;99.90;;;;;;4919419;29;20067;-81
2022/05/13 08:23:16;;;;;;;5.47;1.60;;;19.70;99.90;;;;;;4919362;29;20043;-79
2022/05/13 08:25:44;;;;;;;3.85;1.85;;;19.50;99.90;;;;;;4921856;29;20028;-79
2022/05/13 08:28:10;;;;;;;6.75;1.77;;;19.80;99.90;;;;;;4919732;29;20044;-80
2022/05/13 08:30:37;;;;;;;7.35;2.22;;;19.90;99.90;;;;;;4920909;29;20606;-77
2022/05/13 08:33:08;;;;;;;5.80;2.63;;;20.00;99.90;;;;;;4920477;29;20096;-78
2022/05/13 08:35:37;;;;;;;5.13;1.83;;;20.00;99.90;;;;;;4919278;29;20507;-80
2022/05/13 08:38:04;;;;;;;5.15;2.53;;;20.30;99.90;;;;;;4919693;29;20408;-79
2022/05/13 08:40:29;;;;;;;7.68;2.33;;;20.80;99.90;;;;;;4918633;29;20328;-78
2022/05/13 08:42:55;;;;;;;6.32;2.03;;;21.20;99.90;;;;;;4920087;29;20108;-80
2022/05/13 08:45:22;;;;;;;5.40;1.77;;;21.60;99.90;;;;;;4920700;29;20037;-78
2022/05/13 08:47:52;;;;;;;5.20;1.70;;;21.70;99.90;;;;;;4918599;29;20032;-78
2022/05/13 08:50:37;;;;;;;6.28;1.90;;;21.30;99.90;;;;;;4918983;29;20047;-80
2022/05/13 08:53:22;;;;;;;6.47;1.65;;;21.30;99.90;;;;;;4919177;29;20091;-79
2022/05/13 08:55:56;;;;;;;5.28;2.47;;;21.30;99.90;;;;;;4918836;29;20040;-79
2022/05/13 08:58:27;;;;;;;6.32;1.90;;;21.40;99.90;;;;;;4918052;29;20500;-79
2022/05/13 09:00:55;;;;;;;5.47;2.15;;;21.20;99.90;;;;;;4919647;29;20373;-80
2022/05/13 09:03:30;;;;;;;9.10;2.67;;;20.60;99.90;;;;;;4920243;29;20480;-79
2022/05/13 09:06:01;;;;;;;6.90;2.20;;;20.70;99.90;;;;;;4920472;29;20440;-77
2022/05/13 09:08:27;;;;;;;7.60;1.65;;;20.90;99.90;;;;;;4919935;29;20059;-78
2022/05/13 09:10:58;;;;;;;5.50;1.77;;;21.30;99.90;;;;;;4918697;29;20037;-79
2022/05/13 09:13:40;;;;;;;5.28;1.60;;;21.00;99.90;;;;;;4918922;29;20032;-78
2022/05/13 09:16:08;;;;;;;4.57;1.70;;;20.60;99.90;;;;;;4919444;29;20099;-79
2022/05/13 09:18:36;;;;;;;6.63;1.70;;;20.70;99.90;;;;;;4916822;29;20056;-80
2022/05/13 09:21:05;;;;;;;3.53;1.45;;;20.90;99.90;;;;;;4918109;29;20110;-78
2022/05/13 09:23:31;;;;;;;5.47;1.73;;;21.10;99.90;;;;;;4919457;29;20480;-79
2022/05/13 09:26:03;;;;;;;6.05;1.77;;;21.10;99.90;;;;;;4917944;29;20028;-79
2022/05/13 09:28:31;;;;;;;3.92;1.83;;;21.20;99.90;;;;;;4916809;29;20040;-81
2022/05/13 09:31:05;;;;;;;6.30;1.40;;;21.20;99.90;;;;;;4917006;29;20486;-81
2022/05/13 09:33:37;;;;;;;5.35;2.38;;;21.10;99.90;;;;;;4919225;29;20075;-80
2022/05/13 09:36:02;;;;;;;6.78;1.50;;;20.90;99.90;;;;;;4917667;29;20059;-79
2022/05/13 09:38:45;;;;;;;6.57;2.33;;;21.10;99.90;;;;;;4918993;29;20490;-80
2022/05/13 09:41:22;;;;;;;5.60;1.60;;;20.90;99.90;;;;;;4916260;29;20047;-78
2022/05/13 09:43:54;;;;;;;7.18;1.83;;;20.70;99.90;;;;;;4916203;29;20385;-78
2022/05/13 09:46:35;;;;;;;4.18;1.50;;;20.80;99.90;;;;;;4915548;29;20028;-79
2022/05/13 09:49:36;;;;;;;8.43;2.08;;;20.80;99.90;;;;;;4917415;29;20488;-78
2022/05/13 09:52:18;;;;;;;7.63;1.50;;;20.80;99.90;;;;;;4917231;29;20040;-81
2022/05/13 09:54:46;;;;;;;3.83;1.45;;;20.70;99.90;;;;;;4918193;29;20024;-79
2022/05/13 09:57:20;;;;;;;4.63;1.50;;;20.70;99.90;;;;;;4918433;29;20035;-79
2022/05/13 09:59:53;;;;;;;6.00;1.42;;;20.80;99.90;;;;;;4918197;29;20043;-79
2022/05/13 10:02:31;;;;;;;3.22;1.50;;;21.00;99.90;;;;;;4916775;29;20031;-79
2022/05/13 10:05:20;;;;;;;5.75;1.40;;;20.90;99.90;;;;;;4917911;29;20028;-80
2022/05/13 10:07:49;;;;;;;3.70;1.20;;;20.50;99.90;;;;;;4916270;29;20031;-80
2022/05/13 10:16:18;;;;;;;5.10;1.70;;;21.20;99.90;;;;;;4921503;29;20059;-79
2022/05/13 10:18:56;;;;;;;2.22;1.33;;;21.20;99.90;;;;;;4923879;29;20032;-78
2022/05/13 10:21:29;;;;;;;3.38;1.50;;;21.40;99.90;;;;;;4923982;29;20118;-79
2022/05/13 10:24:21;;;;;;;2.25;1.40;;;21.00;99.90;;;;;;4923839;29;20028;-79
2022/05/13 10:26:49;;;;;;;4.38;1.50;;;20.90;99.90;;;;;;4922989;29;20543;-81
2022/05/13 10:29:21;;;;;;;5.15;1.65;;;21.10;99.90;;;;;;4920754;29;20032;-80
2022/05/13 10:31:49;;;;;;;3.60;1.38;;;21.10;99.90;;;;;;4924339;29;20028;-78
2022/05/13 10:34:39;;;;;;;2.47;1.33;;;21.20;99.90;;;;;;4922891;29;20039;-79
2022/05/13 10:37:20;;;;;;;5.72;1.40;;;20.80;99.90;;;;;;4938557;29;20039;-80
2022/05/13 10:39:52;;;;;;;8.32;1.90;;;20.50;99.90;;;;;;4927464;29;20042;-80
2022/05/13 10:42:30;;;;;;;4.95;1.50;;;20.70;99.90;;;;;;4932360;29;20036;-80
2022/05/13 10:45:09;;;;;;;6.95;2.08;;;20.60;99.90;;;;;;4938052;29;20029;-80
2022/05/13 10:47:47;;;;;;;3.08;1.70;;;20.60;99.90;;;;;;4940442;29;20047;-80
2022/05/13 10:50:33;;;;;;;4.63;1.90;;;20.40;99.90;;;;;;4935711;29;20043;-79
2022/05/13 10:53:08;;;;;;;4.57;2.03;;;20.50;99.90;;;;;;4918835;29;20489;-78
2022/05/13 10:55:36;;;;;;;4.25;1.88;;;20.60;99.90;;;;;;4919672;29;20460;-80
2022/05/13 10:58:46;;;;;;;7.18;1.77;;;20.50;99.90;;;;;;4921957;29;20084;-77
2022/05/13 11:01:40;;;;;;;7.43;2.40;;;20.60;99.90;;;;;;4862678;29;20041;-81
2022/05/13 11:04:27;;;;;;;3.67;1.80;;;20.60;99.90;;;;;;4919295;29;20032;-77
2022/05/13 11:07:04;;;;;;;2.97;1.70;;;21.00;99.90;;;;;;4922472;29;20508;-79
2022/05/13 11:09:51;;;;;;;4.95;3.33;;;21.50;99.90;;;;;;4923561;29;20064;-80
2022/05/13 11:12:26;;;;;;;6.38;2.08;;;20.90;99.90;;;;;;4922281;29;20370;-79
2022/05/13 11:15:34;;;;;;;5.05;2.38;;;20.70;99.90;;;;;;4922490;29;20036;-78
2022/05/13 11:18:15;;;;;;;3.55;2.15;;;20.90;99.90;;;;;;4863124;29;20453;-78
2022/05/13 11:20:58;;;;;;;4.75;2.05;;;20.80;99.90;;;;;;4864143;29;20144;-79
2022/05/13 11:23:36;;;;;;;3.58;2.15;;;21.20;99.90;;;;;;4898459;29;20129;-79
2022/05/13 11:26:12;;;;;;;5.55;2.65;;;21.80;99.90;;;;;;4920300;29;20214;-77
2022/05/13 11:28:52;;;;;;;4.95;2.20;;;21.90;99.90;;;;;;4920224;29;20552;-79
2022/05/13 11:31:36;;;;;;;6.95;2.80;;;22.00;99.90;;;;;;4920363;29;20111;-79
2022/05/13 11:34:39;;;;;;;5.65;1.80;;;22.10;99.90;;;;;;4920179;29;20040;-79
2022/05/13 11:37:08;;;;;;;4.18;2.35;;;21.40;99.90;;;;;;4922122;29;20020;-81
2022/05/13 11:40:10;;;;;;;5.45;2.30;;;21.40;99.90;;;;;;4922962;29;20035;-79
2022/05/13 11:43:18;;;;;;;10.98;2.40;;;21.80;99.90;;;;;;4918445;29;20028;-79
2022/05/13 11:46:25;;;;;;;5.47;2.20;;;21.40;99.90;;;;;;4919496;29;20079;-79
2022/05/13 11:48:56;;;;;;;3.45;1.80;;;21.20;99.90;;;;;;4871781;29;20044;-79
2022/05/13 11:51:28;;;;;;;5.18;2.47;;;21.00;99.90;;;;;;4919744;29;20027;-80
2022/05/13 11:54:15;;;;;;;3.75;1.83;;;21.20;99.90;;;;;;4918546;29;20028;-80
2022/05/13 11:56:43;;;;;;;5.15;2.00;;;21.30;99.90;;;;;;4918135;29;20024;-80
2022/05/13 11:59:30;;;;;;;7.03;1.95;;;21.50;99.90;;;;;;4919612;29;20064;-78
2022/05/13 12:02:07;;;;;;;4.03;1.80;;;21.70;99.90;;;;;;4920646;29;20386;-79
2022/05/13 12:04:36;;;;;;;3.50;1.83;;;21.60;99.90;;;;;;4920009;29;20511;-79
2022/05/13 12:07:25;;;;;;;4.55;1.65;;;21.80;99.90;;;;;;4920685;29;20060;-81
2022/05/13 12:09:53;;;;;;;6.00;1.80;;;22.00;99.90;;;;;;4919813;29;20041;-79
2022/05/13 12:12:25;;;;;;;3.83;1.92;;;22.00;99.90;;;;;;4918208;29;20515;-78
2022/05/13 12:15:00;;;;;;;3.72;2.40;;;22.00;99.90;;;;;;4919841;29;20107;-80
2022/05/13 12:17:50;;;;;;;3.50;2.08;;;22.20;99.90;;;;;;4919346;29;20449;-78
2022/05/13 12:20:23;;;;;;;5.25;1.90;;;21.90;99.20;;;;;;4919046;29;20028;-79
2022/05/13 12:23:17;;;;;;;6.80;2.10;;;21.70;99.00;;;;;;4919541;29;20070;-80
2022/05/13 12:25:48;;;;;;;4.30;1.73;;;21.50;99.70;;;;;;4918708;29;20112;-80
2022/05/13 12:28:14;;;;;;;4.28;1.90;;;21.80;99.80;;;;;;4917570;29;20166;-79
2022/05/13 12:30:46;;;;;;;2.72;1.67;;;22.30;99.70;;;;;;4918646;29;20522;-80
2022/05/13 12:33:17;;;;;;;3.22;1.95;;;22.90;99.50;;;;;;4917216;29;20032;-79
2022/05/13 12:38:31;;;;;;;4.60;1.98;;;23.10;98.20;;;;;;4921721;29;20035;-77
2022/05/13 12:41:10;;;;;;;3.88;1.60;;;23.00;97.90;;;;;;4920387;29;20039;-80
2022/05/13 12:43:54;;;;;;;5.47;1.92;;;22.90;97.50;;;;;;4919427;29;20490;-78
2022/05/13 12:46:40;;;;;;;3.05;1.60;;;23.00;98.70;;;;;;4920886;29;20032;-81
2022/05/13 12:49:10;;;;;;;3.90;1.50;;;23.20;97.20;;;;;;4919329;29;20027;-78
2022/05/13 12:51:51;;;;;;;8.47;1.63;;;23.60;97.00;;;;;;4920987;29;20032;-80
2022/05/13 12:54:21;;;;;;;5.18;1.85;;;23.70;97.10;;;;;;4920434;29;20540;-79
2022/05/13 12:56:53;;;;;;;4.18;1.63;;;23.60;97.00;;;;;;4920841;29;20481;-79
2022/05/13 12:59:29;;;;;;;4.38;1.55;;;23.60;95.70;;;;;;4921716;29;20503;-80
2022/05/13 13:01:59;;;;;;;3.38;1.60;;;23.20;96.30;;;;;;4919834;29;20068;-79
2022/05/13 13:04:26;;;;;;;;;;;23.10;96.50;;;;;;4917169;29;20035;-79
2022/05/13 13:06:53;;;;;;;3.85;1.77;;;22.90;97.10;;;;;;4919791;29;19911;-80
2022/05/13 13:09:34;;;;;;;3.95;1.48;;;22.40;96.60;;;;;;4919403;29;20060;-79
2022/05/13 13:12:21;;;;;;;3.80;1.95;;;22.30;97.50;;;;;;4919878;29;20024;-80
2022/05/13 13:14:59;;;;;;;3.33;1.70;;;22.20;97.10;;;;;;4917935;29;20035;-79
2022/05/13 13:17:39;;;;;;;2.42;1.60;;;21.90;97.20;;;;;;4917574;29;20032;-80
2022/05/13 13:20:07;;;;;;;2.67;1.30;;;21.70;97.10;;;;;;4916315;29;20063;-78
2022/05/13 13:22:37;;;;;;;5.97;2.03;;;21.70;97.80;;;;;;4915927;29;20036;-79
2022/05/13 13:25:20;;;;;;;4.13;1.63;;;21.70;97.10;;;;;;4917644;29;20028;-80
2022/05/13 13:27:46;;;;;;;4.05;1.80;;;22.00;97.00;;;;;;4916935;29;20095;-79
2022/05/13 13:30:17;;;;;;;4.38;1.75;;;22.60;96.60;;;;;;4916031;29;20110;-79
2022/05/13 13:32:49;;;;;;;5.88;1.90;;;22.50;96.30;;;;;;4919179;29;20028;-79
2022/05/13 13:35:15;;;;;;;3.17;1.67;;;22.30;96.10;;;;;;4922976;29;20036;-79
2022/05/13 13:37:41;;;;;;;2.33;1.70;;;21.90;96.30;;;;;;4921611;29;20172;-79
2022/05/13 13:40:22;;;;;;;2.78;1.75;;;22.10;96.80;;;;;;4919286;29;20400;-78
2022/05/13 13:42:48;;;;;;;4.28;1.63;;;22.40;95.70;;;;;;4916744;29;20032;-79
2022/05/13 13:45:18;;;;;;;7.88;1.42;;;22.70;96.60;;;;;;4917444;29;20165;-78
2022/05/13 13:47:47;;;;;;;3.22;1.52;;;22.70;94.40;;;;;;4916820;29;20388;-79
2022/05/13 13:50:20;;;;;;;2.58;1.30;;;22.60;94.20;;;;;;4915690;29;20035;-80
2022/05/13 13:52:47;;;;;;;3.05;1.40;;;22.60;94.10;;;;;;4916567;29;20119;-80
2022/05/13 13:55:25;;;;;;;2.70;1.17;;;22.50;94.40;;;;;;4915985;29;20040;-80
2022/05/13 13:58:07;;;;;;;2.75;2.10;;;22.40;93.90;;;;;;4916758;29;20044;-77
2022/05/13 14:00:44;;;;;;;3.13;1.30;;;22.50;94.10;;;;;;4917980;29;20409;-79
2022/05/13 14:03:14;;;;;;;3.90;1.40;;;22.50;93.40;;;;;;4916169;29;20568;-79
2022/05/13 14:05:50;;;;;;;1.63;1.27;;;22.60;93.60;;;;;;4915526;29;20095;-79
2022/05/13 14:08:17;;;;;;;2.50;1.23;;;22.50;92.60;;;;;;4915798;29;20032;-79
2022/05/13 14:11:10;;;;;;;3.20;1.15;;;22.50;92.50;;;;;;4915092;29;20059;-79
2022/05/13 14:13:44;;;;;;;1.60;1.00;;;22.70;92.00;;;;;;4915747;29;20079;-80
2022/05/13 14:16:18;;;;;;;4.78;1.50;;;22.80;92.00;;;;;;4916645;29;20031;-80
2022/05/13 14:18:45;;;;;;;5.22;1.58;;;22.80;91.70;;;;;;4915406;29;20024;-79
2022/05/13 14:21:23;;;;;;;4.40;1.45;;;23.00;92.50;;;;;;4917155;29;20067;-80
2022/05/13 14:24:01;;;;;;;5.15;1.35;;;23.30;91.90;;;;;;4915750;29;20511;-80
2022/05/13 14:26:27;;;;;;;2.53;1.17;;;23.60;91.50;;;;;;4916721;29;20084;-79
2022/05/13 14:28:53;;;;;;;2.08;1.02;;;23.60;90.80;;;;;;4917397;29;20028;-78
2022/05/13 14:31:39;;;;;;;2.65;1.08;;;23.40;91.10;;;;;;4916827;29;20040;-79
2022/05/13 14:34:17;;;;;;;2.60;1.15;;;23.20;90.90;;;;;;4917126;29;20039;-80
2022/05/13 14:36:46;;;;;;;1.90;1.30;;;23.40;90.90;;;;;;4917814;29;20025;-79
2022/05/13 14:42:13;;;;;;;1.25;1.00;;;23.60;91.50;;;;;;4917395;29;20560;-79
2022/05/13 14:44:42;;;;;;;2.97;1.20;;;23.60;90.30;;;;;;4915213;29;20055;-79
2022/05/13 14:47:28;;;;;;;2.88;1.20;;;23.40;90.30;;;;;;4917418;29;20029;-79
2022/05/13 14:50:00;;;;;;;3.78;1.20;;;23.40;89.60;;;;;;4916788;29;20132;-79
2022/05/13 14:52:50;;;;;;;3.85;1.23;;;23.40;88.00;;;;;;4915462;29;20036;-79
2022/05/13 14:55:23;;;;;;;1.85;1.00;;;23.10;87.70;;;;;;4916152;29;20473;-79
2022/05/13 14:57:50;;;;;;;5.18;1.35;;;23.00;89.40;;;;;;4919176;29;20032;-78
2022/05/13 15:00:30;;;;;;;1.98;0.90;;;23.30;88.20;;;;;;4920006;29;20032;-78
2022/05/13 15:03:06;;;;;;;3.78;1.17;;;23.10;88.00;;;;;;4919811;29;20028;-80
2022/05/13 15:05:46;;;;;;;2.40;1.02;;;23.20;88.70;;;;;;4918396;29;20043;-80
2022/05/13 15:08:44;;;;;;;3.40;1.45;;;23.00;88.50;;;;;;4919674;29;20107;-80
2022/05/13 15:11:12;;;;;;;2.17;1.00;;;22.90;88.80;;;;;;4918916;29;20036;-81
2022/05/13 15:13:37;;;;;;;2.45;1.35;;;22.70;88.10;;;;;;4920100;29;20047;-81
2022/05/13 15:16:04;;;;;;;1.50;1.05;;;22.90;88.80;;;;;;4918155;29;20500;-79
2022/05/13 15:18:32;;;;;;;3.13;1.35;;;22.80;86.80;;;;;;4919978;29;20032;-79
2022/05/13 15:20:59;;;;;;;8.27;1.40;;;22.70;88.10;;;;;;4918177;29;20123;-80
2022/05/13 15:23:25;;;;;;;3.47;1.30;;;22.80;88.70;;;;;;4917927;29;20388;-79
2022/05/13 15:25:51;;;;;;;4.85;1.35;;;22.90;88.70;;;;;;4919498;29;20499;-79
2022/05/13 15:28:21;;;;;;;3.92;1.08;;;22.80;88.90;;;;;;4918405;29;20036;-79
2022/05/13 15:30:48;;;;;;;2.72;1.30;;;23.00;89.80;;;;;;4919301;29;20061;-80
2022/05/13 15:33:13;;;;;;;1.95;1.08;;;23.20;89.70;;;;;;4920652;29;20477;-79
2022/05/13 15:35:39;;;;;;;2.92;1.00;;;23.20;87.70;;;;;;4917392;29;20031;-79
2022/05/13 15:38:07;;;;;;;2.75;1.10;;;23.10;88.40;;;;;;4918915;29;20032;-79
2022/05/13 15:40:32;;;;;;;2.80;1.23;;;22.90;88.40;;;;;;4917370;29;20043;-80
2022/05/13 15:42:59;;;;;;;2.90;1.13;;;22.90;88.30;;;;;;4918329;29;20036;-79
2022/05/13 15:45:26;;;;;;;2.85;1.75;;;22.80;87.40;;;;;;4918887;29;20039;-80
2022/05/13 15:47:53;;;;;;;3.35;0.85;;;22.60;87.10;;;;;;4918529;29;20031;-78
2022/05/13 15:53:06;;;;;;;4.00;1.08;;;22.70;87.30;;;;;;4918976;29;20444;-79
2022/05/13 15:55:45;;;;;;;2.45;1.25;;;22.50;87.10;;;;;;4918856;29;20024;-79
2022/05/13 15:58:17;;;;;;;1.80;1.00;;;22.60;87.20;;;;;;4917466;29;20465;-79
2022/05/13 16:00:42;;;;;;;2.45;1.17;;;22.50;87.10;;;;;;4917934;29;20044;-80
2022/05/13 16:03:08;;;;;;;1.63;0.93;;;22.40;86.40;;;;;;4918324;29;20032;-80
2022/05/13 16:05:37;;;;;;;1.25;0.93;;;22.30;87.00;;;;;;4918350;29;20028;-79
2022/05/13 16:08:05;;;;;;;2.50;0.88;;;22.30;87.70;;;;;;4917062;29;20051;-79
2022/05/13 16:10:30;;;;;;;2.90;1.05;;;22.10;87.40;;;;;;4918413;29;20028;-79
2022/05/13 16:13:01;;;;;;;3.50;0.80;;;22.10;88.10;;;;;;4918316;29;20040;-81
2022/05/13 16:15:31;;;;;;;2.90;1.15;;;22.10;87.00;;;;;;4917102;29;20031;-81
2022/05/13 16:17:58;;;;;;;3.22;0.93;;;22.00;87.50;;;;;;4916853;29;20036;-78
2022/05/13 16:20:27;;;;;;;5.70;1.45;;;22.10;87.70;;;;;;4919116;29;20036;-78
2022/05/13 16:22:53;;;;;;;3.55;1.20;;;22.10;87.30;;;;;;4920344;29;20035;-78
2022/05/13 16:25:20;;;;;;;2.75;1.25;;;22.10;87.20;;;;;;4918455;29;20470;-80
2022/05/13 16:27:49;;;;;;;2.08;0.90;;;22.20;87.60;;;;;;4916915;29;20488;-79
2022/05/13 16:30:15;;;;;;;3.05;1.25;;;22.10;86.00;;;;;;4917102;29;20476;-79
2022/05/13 16:32:41;;;;;;;2.40;0.95;;;22.10;85.70;;;;;;4918924;29;20131;-80
2022/05/13 16:35:11;;;;;;;5.22;1.33;;;22.00;84.30;;;;;;4917970;29;20103;-79
2022/05/13 16:37:42;;;;;;;1.27;0.60;;;22.00;84.10;;;;;;4917005;29;20515;-80
2022/05/13 16:40:10;;;;;;;2.38;0.93;;;22.00;83.90;;;;;;4916367;29;20040;-80
2022/05/13 16:42:37;;;;;;;3.38;1.60;;;22.00;84.50;;;;;;4917918;29;20032;-81
2022/05/13 16:45:03;;;;;;;2.55;0.90;;;21.90;83.50;;;;;;4917775;29;20024;-80
2022/05/13 16:47:29;;;;;;;4.60;1.10;;;21.90;82.50;;;;;;4918839;29;20043;-80
2022/05/13 16:49:54;;;;;;;5.15;1.50;;;21.90;81.70;;;;;;4916738;29;20485;-80
2022/05/13 16:52:20;;;;;;;3.33;1.17;;;22.10;82.10;;;;;;4917291;29;20084;-80
2022/05/13 16:54:46;;;;;;;3.17;1.10;;;22.00;82.70;;;;;;4925344;29;20480;-79
2022/05/13 16:57:12;;;;;;;4.97;0.90;;;21.90;80.80;;;;;;4922666;29;20025;-79
2022/05/13 16:59:38;;;;;;;1.20;0.68;;;22.20;81.30;;;;;;4918015;29;20032;-78
2022/05/13 17:02:06;;;;;;;2.28;1.10;;;22.40;81.50;;;;;;4916226;29;20032;-78
2022/05/13 17:04:31;;;;;;;2.30;1.08;;;22.80;81.10;;;;;;4915996;29;20039;-80
2022/05/13 17:06:57;;;;;;;3.85;1.17;;;23.10;81.50;;;;;;4915403;29;20032;-79
2022/05/13 17:17:35;;;;;;;2.63;1.05;;;23.10;77.60;;;;;;4917552;29;20050;-80
2022/05/13 17:20:01;;;;;;;3.50;0.68;;;23.10;77.60;;;;;;4916334;29;20028;-80
2022/05/13 17:22:27;;;;;;;3.28;1.30;;;23.30;78.60;;;;;;4917176;29;20625;-78
2022/05/13 17:24:53;;;;;;;4.75;0.95;;;23.50;78.00;;;;;;4916724;29;20035;-79
2022/05/13 17:27:23;;;;;;;2.00;0.95;;;23.60;77.10;;;;;;4915369;29;20051;-78
2022/05/13 17:29:50;;;;;;;1.70;0.80;;;23.40;75.90;;;;;;4916739;29;20388;-79
2022/05/13 17:32:18;;;;;;;4.32;1.80;;;23.40;76.20;;;;;;4915195;29;20036;-79
2022/05/13 17:34:44;;;;;;;2.53;1.55;;;23.50;76.10;;;;;;4915679;29;20044;-79
2022/05/13 17:37:20;;;;;;;13.25;1.88;;;23.40;76.50;;;;;;4916323;29;20042;-79
2022/05/13 17:39:46;;;;;;;2.83;2.17;;;23.50;76.70;;;;;;4916583;29;20028;-79
2022/05/13 17:42:13;;;;;;;4.35;0.93;;;23.40;76.20;;;;;;4916666;29;20128;-79
2022/05/13 17:44:39;;;;;;;3.92;1.10;;;23.60;76.20;;;;;;4915667;29;20484;-80
2022/05/13 17:47:05;;;;;;;1.80;0.90;;;23.70;76.20;;;;;;4916953;29;20066;-80
2022/05/13 17:49:30;;;;;;;3.92;1.08;;;24.00;75.60;;;;;;4917041;29;20408;-79
2022/05/13 17:51:58;;;;;;;3.13;0.68;;;23.70;75.20;;;;;;4916756;29;20035;-79
2022/05/13 17:54:25;;;;;;;2.17;0.60;;;23.70;74.20;;;;;;4916769;29;20172;-80
2022/05/13 17:56:51;;;;;;;4.82;0.70;;;23.90;74.60;;;;;;4915277;29;20056;-81
2022/05/13 17:59:16;;;;;;;1.20;0.68;;;23.20;74.10;;;;;;4915403;29;20445;-79
2022/05/13 18:01:42;;;;;;;2.20;0.90;;;22.80;76.10;;;;;;4914867;29;20028;-80
2022/05/13 18:04:07;;;;;;;3.25;1.27;;;23.10;76.30;;;;;;4916119;29;20075;-80
2022/05/13 18:06:33;;;;;;;3.25;0.80;;;23.40;75.40;;;;;;4916339;29;20032;-80
2022/05/13 18:08:58;;;;;;;3.15;0.88;;;23.10;75.10;;;;;;4915755;29;20096;-80
2022/05/13 18:11:24;;;;;;;3.45;0.90;;;22.30;76.30;;;;;;4915285;29;20025;-79
2022/05/13 18:13:50;;;;;;;1.92;0.98;;;21.80;77.80;;;;;;4917088;29;20040;-79
2022/05/13 18:16:15;;;;;;;3.38;0.98;;;21.30;78.40;;;;;;4916393;29;20092;-80
2022/05/13 18:18:41;;;;;;;2.50;0.88;;;21.00;79.10;;;;;;4916215;29;20036;-80
2022/05/13 18:21:10;;;;;;;4.22;1.20;;;20.80;80.00;;;;;;4916146;29;20037;-78
2022/05/13 18:23:37;;;;;;;3.00;1.27;;;20.60;80.70;;;;;;4917026;29;20083;-80
2022/05/13 18:26:04;;;;;;;6.60;1.23;;;20.40;81.00;;;;;;4916731;29;20096;-81
2022/05/13 18:28:29;;;;;;;2.78;1.17;;;20.30;80.90;;;;;;4914818;29;20028;-80
2022/05/13 18:30:57;;;;;;;2.97;0.90;;;20.20;81.40;;;;;;4916019;29;20051;-80
2022/05/13 18:33:23;;;;;;;3.10;1.30;;;20.10;81.60;;;;;;4919843;29;20032;-80
2022/05/13 18:35:50;;;;;;;2.92;0.90;;;20.00;82.60;;;;;;4919854;29;20451;-78
2022/05/13 18:38:16;;;;;;;3.30;1.33;;;19.90;82.40;;;;;;4920582;29;20028;-79
2022/05/13 18:46:29;;;;;;;2.28;0.98;;;19.60;84.90;;;;;;4919503;29;20043;-79
2022/05/13 18:48:56;;;;;;;3.17;0.90;;;19.50;85.20;;;;;;4919858;29;20544;-79
2022/05/13 18:51:22;;;;;;;2.88;1.15;;;19.40;85.00;;;;;;4918702;29;20036;-79
2022/05/13 18:53:49;;;;;;;4.03;1.27;;;19.40;85.90;;;;;;4918829;29;20549;-80
2022/05/13 18:56:17;;;;;;;3.95;1.23;;;19.30;86.30;;;;;;4919492;29;20035;-80
2022/05/13 18:58:44;;;;;;;2.40;1.08;;;19.10;87.00;;;;;;4918449;29;20028;-80
2022/05/13 19:01:10;;;;;;;4.75;1.00;;;18.90;87.10;;;;;;4923093;29;20059;-78
2022/05/13 19:03:36;;;;;;;7.30;1.33;;;18.90;87.60;;;;;;4920893;29;20021;-79
2022/05/13 19:06:04;;;;;;;3.45;1.40;;;18.90;88.50;;;;;;4917400;29;20068;-79
2022/05/13 19:08:32;;;;;;;5.50;1.17;;;18.80;89.20;;;;;;4920749;29;20031;-78
2022/05/13 19:10:57;;;;;;;3.72;1.40;;;18.80;88.00;;;;;;4921798;29;20055;-79
2022/05/13 19:13:23;;;;;;;2.55;1.20;;;18.70;90.00;;;;;;4922151;29;20051;-80
2022/05/13 19:15:52;;;;;;;3.45;1.15;;;18.50;89.50;;;;;;4919806;29;20055;-79
2022/05/13 19:18:21;;;;;;;1.73;1.00;;;18.50;88.80;;;;;;4923497;29;20461;-78
2022/05/13 19:20:48;;;;;;;2.13;1.00;;;18.50;89.40;;;;;;4922717;29;20036;-79
2022/05/13 19:23:14;;;;;;;3.25;1.33;;;18.40;89.80;;;;;;4921280;29;20052;-79
2022/05/13 19:25:40;;;;;;;3.15;1.27;;;18.30;89.60;;;;;;4920758;29;20507;-80
2022/05/13 19:28:10;;;;;;;2.20;1.38;;;18.30;90.40;;;;;;4921839;29;20028;-80
2022/05/13 19:30:36;;;;;;;5.82;1.42;;;18.10;90.60;;;;;;4925088;29;20028;-79
2022/05/13 19:33:04;;;;;;;2.70;1.58;;;17.90;90.90;;;;;;4926763;29;20039;-78
2022/05/13 19:35:31;;;;;;;3.25;1.73;;;17.80;91.80;;;;;;4920223;29;20059;-79
2022/05/13 19:37:56;;;;;;;4.20;2.33;;;17.60;91.90;;;;;;4919689;29;20107;-80
2022/05/13 19:40:22;;;;;;;6.32;2.20;;;17.40;92.70;;;;;;4919227;29;20127;-79